createdAt,value
2018-10-06T00:01:40.482Z,14.87
2018-10-06T00:04:09.230Z,20.00
2018-10-06T00:06:37.890Z,16.05
2018-10-06T00:09:06.790Z,18.70
2018-10-06T00:11:35.283Z,18.15
2018-10-06T00:14:04.783Z,21.68
2018-10-06T00:16:33.338Z,19.82
2018-10-06T00:19:01.791Z,26.10
2018-10-06T00:21:30.518Z,21.02
2018-10-06T00:23:59.066Z,23.47
2018-10-06T00:26:27.507Z,16.97
2018-10-06T00:28:55.963Z,21.97
2018-10-06T00:31:24.434Z,22.52
2018-10-06T00:33:52.979Z,19.05
2018-10-06T00:36:21.438Z,21.97
2018-10-06T00:38:49.915Z,21.60
2018-10-06T00:41:18.948Z,20.37
2018-10-06T00:43:47.490Z,21.80
2018-10-06T00:46:15.978Z,18.45
2018-10-06T00:48:44.481Z,20.65
2018-10-06T00:51:13.490Z,22.90
2018-10-06T00:53:42.046Z,21.95
2018-10-06T00:56:10.478Z,22.53
2018-10-06T00:58:38.948Z,22.00
2018-10-06T01:01:07.434Z,22.15
2018-10-06T01:03:36.501Z,22.77
2018-10-06T01:06:05.574Z,22.13
2018-10-06T01:08:34.378Z,24.25
2018-10-06T01:11:02.845Z,27.42
2018-10-06T01:13:31.326Z,25.30
2018-10-06T01:15:59.807Z,24.77
2018-10-06T01:18:28.318Z,22.65
2018-10-06T01:20:57.142Z,25.32
2018-10-06T01:23:25.622Z,22.67
2018-10-06T01:25:54.170Z,24.35
2018-10-06T01:28:22.618Z,20.57
2018-10-06T01:30:51.110Z,21.45
2018-10-06T01:33:19.546Z,23.20
2018-10-06T01:35:48.270Z,22.02
2018-10-06T01:38:17.178Z,24.43
2018-10-06T01:40:45.887Z,22.95
2018-10-06T01:43:14.372Z,24.95
2018-10-06T01:45:43.106Z,25.97
2018-10-06T01:48:11.574Z,26.12
2018-10-06T01:50:40.318Z,22.98
2018-10-06T01:53:08.806Z,25.10
2018-10-06T01:55:37.242Z,22.77
2018-10-06T01:58:06.030Z,24.65
2018-10-06T02:00:34.529Z,22.98
2018-10-06T02:03:03.801Z,21.80
2018-10-06T02:05:32.350Z,24.25
2018-10-06T02:08:00.817Z,26.25
2018-10-06T02:10:29.293Z,25.85
2018-10-06T02:12:58.110Z,27.70
2018-10-06T02:15:26.853Z,29.98
2018-10-06T02:17:55.321Z,23.22
2018-10-06T02:20:23.801Z,25.52
2018-10-06T02:22:52.337Z,26.00
2018-10-06T02:25:21.101Z,26.53
2018-10-06T02:27:49.550Z,27.37
2018-10-06T02:30:18.067Z,24.87
2018-10-06T02:32:46.641Z,26.20
2018-10-06T02:35:15.629Z,27.20
2018-10-06T02:37:44.134Z,25.00
2018-10-06T02:40:12.843Z,27.65
2018-10-06T02:42:41.282Z,26.17
2018-10-06T02:45:10.415Z,27.65
2018-10-06T02:47:39.289Z,26.05
2018-10-06T02:50:08.891Z,26.48
2018-10-06T02:52:37.360Z,27.87
2018-10-06T02:55:05.847Z,25.55
2018-10-06T02:57:34.399Z,25.43
2018-10-06T03:00:02.918Z,27.10
2018-10-06T03:02:31.354Z,30.85
2018-10-06T03:04:59.846Z,27.85
2018-10-06T03:07:28.318Z,26.17
2018-10-06T03:09:56.826Z,30.37
2018-10-06T03:12:25.286Z,30.37
2018-10-06T03:14:53.803Z,28.55
2018-10-06T03:17:22.574Z,25.82
2018-10-06T03:19:51.103Z,29.45
2018-10-06T03:22:19.578Z,28.50
2018-10-06T03:24:48.030Z,28.55
2018-10-06T03:27:16.812Z,28.67
2018-10-06T03:29:45.289Z,30.77
2018-10-06T03:32:14.022Z,28.07
2018-10-06T03:34:43.076Z,27.48
2018-10-06T03:37:11.566Z,26.33
2018-10-06T03:39:40.006Z,35.00
2018-10-06T03:42:08.722Z,27.48
2018-10-06T03:44:37.234Z,30.02
2018-10-06T03:47:05.986Z,27.27
2018-10-06T03:49:34.562Z,28.12
2018-10-06T03:52:03.370Z,27.52
2018-10-06T03:54:31.821Z,29.90
2018-10-06T03:57:00.298Z,27.17
2018-10-06T03:59:28.977Z,34.23
2018-10-06T04:01:57.677Z,27.98
2018-10-06T04:04:26.237Z,34.45
2018-10-06T04:06:54.738Z,35.15
2018-10-06T04:09:23.166Z,33.95
2018-10-06T04:11:51.703Z,29.32
2018-10-06T04:14:20.486Z,29.37
2018-10-06T04:16:48.909Z,31.42
2018-10-06T04:19:17.714Z,30.25
2018-10-06T04:21:47.650Z,30.88
2018-10-06T04:24:17.229Z,28.83
2018-10-06T04:26:45.693Z,28.12
2018-10-06T04:29:14.226Z,31.73
2018-10-06T04:31:43.173Z,30.80
2018-10-06T04:34:11.638Z,32.58
2018-10-06T04:36:40.135Z,33.33
2018-10-06T04:39:11.073Z,31.90
2018-10-06T04:41:39.565Z,32.85
2018-10-06T04:44:08.289Z,31.17
2018-10-06T04:46:36.750Z,33.00
2018-10-06T04:49:05.381Z,40.03
2018-10-06T04:51:34.301Z,32.55
2018-10-06T04:54:02.857Z,36.35
2018-10-06T04:57:01.822Z,35.20
2018-10-06T04:59:30.366Z,33.25
2018-10-06T05:01:59.354Z,34.25
2018-10-06T05:04:27.829Z,34.10
2018-10-06T05:06:56.282Z,35.90
2018-10-06T05:09:24.833Z,31.35
2018-10-06T05:11:53.410Z,32.80
2018-10-06T05:14:21.852Z,30.17
2018-10-06T05:16:50.308Z,31.52
2018-10-06T05:19:18.785Z,34.95
2018-10-06T05:21:47.341Z,31.12
2018-10-06T05:24:16.206Z,32.55
2018-10-06T05:26:44.697Z,32.10
2018-10-06T05:29:13.162Z,31.12
2018-10-06T05:31:41.617Z,35.65
2018-10-06T05:34:10.262Z,38.20
2018-10-06T05:36:39.221Z,35.50
2018-10-06T05:39:09.133Z,34.85
2018-10-06T05:41:37.686Z,36.48
2018-10-06T05:44:06.400Z,37.15
2018-10-06T05:46:35.413Z,35.43
2018-10-06T05:49:04.958Z,32.28
2018-10-06T05:51:33.561Z,35.52
2018-10-06T05:54:02.009Z,38.42
2018-10-06T05:56:30.525Z,31.95
2018-10-06T05:58:58.990Z,38.33
2018-10-06T06:01:27.601Z,32.42
2018-10-06T06:03:56.065Z,30.95
2018-10-06T06:06:24.577Z,34.20
2018-10-06T06:08:53.429Z,34.40
2018-10-06T06:11:21.925Z,38.20
2018-10-06T06:13:50.645Z,30.23
2018-10-06T06:16:19.412Z,32.58
2018-10-06T06:18:48.100Z,35.25
2018-10-06T06:21:23.041Z,33.47
2018-10-06T06:23:51.717Z,37.00
2018-10-06T06:26:20.161Z,28.17
2018-10-06T06:28:49.445Z,25.43
2018-10-06T06:31:18.002Z,29.70
2018-10-06T06:33:46.532Z,28.50
2018-10-06T06:36:16.129Z,27.45
2018-10-06T06:38:44.601Z,30.55
2018-10-06T06:41:13.144Z,28.00
2018-10-06T06:43:42.448Z,26.35
2018-10-06T06:46:11.256Z,28.38
2018-10-06T06:48:39.724Z,26.48
2018-10-06T06:51:08.152Z,27.77
2018-10-06T06:53:37.020Z,28.67
2018-10-06T06:56:05.488Z,33.13
2018-10-06T06:58:34.285Z,24.45
2018-10-06T07:03:37.489Z,28.87
2018-10-06T07:06:06.008Z,27.95
2018-10-06T07:08:34.480Z,27.48
2018-10-06T07:11:03.052Z,26.33
2018-10-06T07:13:31.552Z,28.85
2018-10-06T07:16:00.457Z,24.65
2018-10-06T07:18:28.977Z,29.63
2018-10-06T07:20:57.428Z,26.37
2018-10-06T07:23:26.253Z,25.80
2018-10-06T07:25:54.752Z,23.98
2018-10-06T07:28:23.820Z,23.42
2018-10-06T07:30:52.234Z,25.50
2018-10-06T07:33:21.384Z,22.52
2018-10-06T07:35:49.852Z,26.95
2018-10-06T07:38:19.757Z,24.67
2018-10-06T07:40:48.317Z,24.43
2018-10-06T07:43:17.372Z,26.15
2018-10-06T07:45:46.000Z,23.50
2018-10-06T07:48:14.484Z,26.77
2018-10-06T07:50:43.303Z,23.85
2018-10-06T07:53:11.988Z,22.65
2018-10-06T07:55:40.640Z,25.35
2018-10-06T07:58:09.132Z,22.32
2018-10-06T08:00:37.933Z,28.23
2018-10-06T08:03:06.572Z,24.55
2018-10-06T08:05:35.072Z,28.67
2018-10-06T08:08:04.604Z,24.80
2018-10-06T08:10:33.048Z,25.77
2018-10-06T08:13:01.545Z,22.75
2018-10-06T08:15:30.355Z,20.88
2018-10-06T08:17:58.843Z,22.62
2018-10-06T08:20:27.655Z,26.65
2018-10-06T08:22:56.271Z,24.70
2018-10-06T08:25:25.064Z,25.45
2018-10-06T08:27:53.892Z,21.95
2018-10-06T08:30:22.347Z,22.07
2018-10-06T08:32:51.055Z,25.55
2018-10-06T08:35:19.887Z,21.90
2018-10-06T08:37:48.444Z,21.12
2018-10-06T08:40:16.940Z,25.88
2018-10-06T08:42:45.480Z,20.92
2018-10-06T08:45:13.969Z,23.75
2018-10-06T08:47:42.459Z,26.70
2018-10-06T08:50:11.012Z,19.77
2018-10-06T08:52:39.818Z,19.52
2018-10-06T08:55:08.312Z,21.93
2018-10-06T08:57:36.836Z,21.23
2018-10-06T09:00:05.431Z,21.70
2018-10-06T09:02:33.933Z,16.20
2018-10-06T09:05:02.417Z,19.02
2018-10-06T09:07:31.189Z,19.20
2018-10-06T09:09:59.653Z,22.90
2018-10-06T09:12:28.213Z,18.85
2018-10-06T09:14:56.673Z,16.32
2018-10-06T09:17:25.133Z,17.60
2018-10-06T09:19:53.674Z,19.62
2018-10-06T09:22:22.195Z,18.70
2018-10-06T09:24:50.673Z,18.65
2018-10-06T09:27:19.123Z,19.77
2018-10-06T09:29:47.643Z,15.60
2018-10-06T09:32:16.368Z,17.47
2018-10-06T09:34:44.831Z,17.52
2018-10-06T09:37:13.319Z,17.23
2018-10-06T09:39:41.835Z,17.95
2018-10-06T09:42:10.452Z,16.30
2018-10-06T09:44:38.858Z,20.35
2018-10-06T09:47:07.334Z,16.05
2018-10-06T09:49:35.794Z,16.87
2018-10-06T09:52:04.638Z,18.15
2018-10-06T09:54:33.426Z,15.35
2018-10-06T09:57:01.952Z,14.47
2018-10-06T09:59:30.798Z,14.95
2018-10-06T10:02:04.505Z,16.30
2018-10-06T10:04:33.020Z,15.43
2018-10-06T10:07:01.515Z,17.73
2018-10-06T10:09:29.999Z,14.23
2018-10-06T10:11:58.512Z,17.85
2018-10-06T10:14:27.012Z,18.42
2018-10-06T10:16:55.482Z,13.60
2018-10-06T10:19:24.007Z,20.57
2018-10-06T10:21:52.866Z,15.93
2018-10-06T10:24:21.373Z,14.78
2018-10-06T10:26:50.508Z,12.33
2018-10-06T10:29:18.988Z,14.10
2018-10-06T10:31:47.747Z,12.07
2018-10-06T10:34:16.672Z,12.43
2018-10-06T10:36:45.424Z,11.73
2018-10-06T10:39:15.719Z,15.33
2018-10-06T10:41:47.387Z,15.32
2018-10-06T10:44:21.754Z,14.65
2018-10-06T10:46:54.668Z,12.95
2018-10-06T10:49:25.553Z,17.87
2018-10-06T10:51:54.506Z,15.03
2018-10-06T10:54:23.406Z,10.98
2018-10-06T10:56:53.195Z,16.67
2018-10-06T10:59:22.210Z,14.78
2018-10-06T11:01:51.108Z,18.85
2018-10-06T11:04:20.295Z,13.30
2018-10-06T11:06:58.472Z,14.65
2018-10-06T11:09:43.890Z,12.50
2018-10-06T11:12:17.975Z,12.70
2018-10-06T11:14:47.766Z,13.08
2018-10-06T11:17:25.631Z,11.10
2018-10-06T11:19:56.643Z,11.35
2018-10-06T11:22:27.842Z,11.20
2018-10-06T11:24:56.891Z,9.90
2018-10-06T11:27:25.630Z,14.43
2018-10-06T11:29:54.460Z,10.98
2018-10-06T11:32:23.306Z,11.63
2018-10-06T11:34:52.666Z,9.10
2018-10-06T11:37:21.923Z,11.22
2018-10-06T11:39:50.665Z,8.83
2018-10-06T11:42:19.430Z,9.68
2018-10-06T11:45:19.010Z,10.10
2018-10-06T11:47:47.845Z,9.95
2018-10-06T11:50:16.819Z,13.97
2018-10-06T11:52:45.525Z,14.33
2018-10-06T11:55:15.077Z,10.43
2018-10-06T11:57:43.871Z,13.68
2018-10-06T12:00:13.009Z,13.03
2018-10-06T12:02:42.081Z,12.73
2018-10-06T12:05:10.826Z,11.70
2018-10-06T12:07:39.853Z,12.93
2018-10-06T12:13:02.670Z,12.83
2018-10-06T12:15:31.354Z,13.48
2018-10-06T12:18:00.018Z,13.45
2018-10-06T12:20:28.682Z,11.18
2018-10-06T12:22:57.177Z,10.18
2018-10-06T12:25:25.801Z,11.48
2018-10-06T12:27:54.570Z,10.55
2018-10-06T12:30:23.178Z,13.15
2018-10-06T12:32:51.982Z,11.40
2018-10-06T12:35:20.840Z,9.93
2018-10-06T12:37:49.265Z,11.73
2018-10-06T12:40:17.729Z,10.50
2018-10-06T12:42:46.289Z,9.58
2018-10-06T12:45:14.842Z,11.33
2018-10-06T12:47:43.805Z,9.60
2018-10-06T12:50:12.371Z,11.67
2018-10-06T12:52:41.089Z,9.80
2018-10-06T12:55:09.635Z,11.80
2018-10-06T12:57:38.421Z,9.20
2018-10-06T13:00:07.214Z,11.10
2018-10-06T13:02:36.046Z,9.53
2018-10-06T13:05:05.299Z,10.40
2018-10-06T13:07:33.873Z,7.83
2018-10-06T13:10:02.837Z,12.10
2018-10-06T13:12:31.473Z,13.72
2018-10-06T13:15:00.150Z,12.75
2018-10-06T13:17:28.770Z,12.95
2018-10-06T13:19:57.292Z,14.20
2018-10-06T13:22:25.921Z,11.33
2018-10-06T13:24:54.452Z,10.38
2018-10-06T13:27:23.037Z,9.60
2018-10-06T13:29:51.649Z,10.13
2018-10-06T13:32:21.643Z,11.35
2018-10-06T13:34:50.429Z,10.75
2018-10-06T13:37:18.956Z,9.93
2018-10-06T13:39:47.480Z,10.53
2018-10-06T13:42:15.993Z,9.53
2018-10-06T13:44:44.768Z,11.00
2018-10-06T13:47:13.341Z,10.85
2018-10-06T13:49:41.940Z,10.60
2018-10-06T13:55:09.620Z,11.50
2018-10-06T13:57:38.109Z,12.50
2018-10-06T14:00:06.624Z,12.53
2018-10-06T14:02:35.463Z,10.28
2018-10-06T14:05:04.545Z,11.02
2018-10-06T14:07:33.540Z,12.45
2018-10-06T14:10:02.064Z,11.35
2018-10-06T14:12:30.520Z,11.35
2018-10-06T14:14:59.008Z,10.53
2018-10-06T14:17:27.532Z,12.78
2018-10-06T14:19:56.043Z,11.90
2018-10-06T14:22:24.584Z,13.20
2018-10-06T14:24:53.495Z,10.00
2018-10-06T14:27:22.192Z,11.20
2018-10-06T14:29:50.876Z,13.53
2018-10-06T14:32:19.679Z,14.05
2018-10-06T14:34:48.401Z,13.40
2018-10-06T14:37:16.992Z,14.93
2018-10-06T14:39:45.686Z,11.88
2018-10-06T14:42:14.736Z,15.23
2018-10-06T14:44:43.784Z,17.42
2018-10-06T14:47:12.400Z,23.02
2018-10-06T14:49:40.896Z,16.05
2018-10-06T14:52:09.412Z,12.70
2018-10-06T14:54:37.960Z,12.05
2018-10-06T14:57:06.508Z,17.17
2018-10-06T14:59:35.995Z,18.57
2018-10-06T15:02:05.932Z,15.40
2018-10-06T15:04:34.655Z,13.53
2018-10-06T15:07:03.218Z,13.18
2018-10-06T15:09:31.803Z,13.80
2018-10-06T15:12:00.351Z,12.15
2018-10-06T15:14:29.126Z,10.82
2018-10-06T15:16:58.582Z,10.80
2018-10-06T15:19:28.260Z,11.50
2018-10-06T15:24:51.558Z,15.05
2018-10-06T15:27:20.287Z,12.00
2018-10-06T15:29:51.559Z,14.95
2018-10-06T15:32:20.450Z,16.90
2018-10-06T15:34:49.362Z,17.05
2018-10-06T15:37:18.063Z,17.65
2018-10-06T15:39:46.923Z,21.60
2018-10-06T15:42:15.654Z,23.50
2018-10-06T15:44:45.387Z,25.68
2018-10-06T15:47:13.983Z,21.25
2018-10-06T15:49:42.942Z,24.85
2018-10-06T15:52:13.335Z,23.33
2018-10-06T15:54:41.955Z,21.95
2018-10-06T15:57:10.439Z,23.62
2018-10-06T15:59:38.906Z,20.77
2018-10-06T16:02:07.522Z,23.52
2018-10-06T16:04:36.053Z,21.50
2018-10-06T16:07:04.674Z,22.00
2018-10-06T16:09:33.282Z,18.87
2018-10-06T16:12:01.782Z,15.65
2018-10-06T16:14:31.283Z,19.67
2018-10-06T16:17:04.514Z,13.95
2018-10-06T16:19:33.019Z,17.30
2018-10-06T16:24:51.827Z,14.85
2018-10-06T16:30:13.949Z,13.40
2018-10-06T16:32:43.043Z,13.72
2018-10-06T17:36:32.854Z,32.00
2018-10-06T17:39:02.203Z,31.07
2018-10-06T17:41:38.118Z,29.65
2018-10-06T17:44:07.431Z,27.10
2018-10-06T17:46:36.434Z,26.90
2018-10-06T17:49:05.290Z,22.05
2018-10-06T17:51:34.514Z,17.17
2018-10-06T19:02:59.819Z,24.57
2018-10-06T19:27:32.900Z,26.05
2018-10-06T19:36:31.192Z,26.52
2018-10-06T20:19:44.018Z,24.85
2018-10-06T20:22:13.636Z,27.15
2018-10-06T20:24:42.584Z,31.70
2018-10-06T20:27:11.205Z,29.30
2018-10-06T20:35:28.003Z,29.00
2018-10-06T20:50:46.638Z,31.17
2018-10-06T20:53:20.267Z,29.42
2018-10-06T20:55:51.447Z,27.87
2018-10-06T21:14:38.576Z,20.88
2018-10-06T21:33:07.957Z,22.95
2018-10-06T21:38:29.519Z,27.40
2018-10-06T22:20:46.478Z,21.80
